createdAt,value
2018-12-24T00:00:21.291Z,1001.29
2018-12-24T00:01:21.301Z,1001.25
2018-12-24T00:02:21.322Z,1001.27
2018-12-24T00:03:21.272Z,1001.31
2018-12-24T00:04:21.292Z,1001.16
2018-12-24T00:05:21.259Z,1001.30
2018-12-24T00:06:21.262Z,1001.29
2018-12-24T00:07:21.254Z,1001.35
2018-12-24T00:08:21.254Z,1001.32
2018-12-24T00:09:21.250Z,1001.30
2018-12-24T00:10:21.243Z,1001.33
2018-12-24T00:11:21.243Z,1001.41
2018-12-24T00:12:21.238Z,1001.27
2018-12-24T00:13:21.234Z,1001.29
2018-12-24T00:14:21.237Z,1001.32
2018-12-24T00:15:21.220Z,1001.30
2018-12-24T00:16:21.213Z,1001.34
2018-12-24T00:17:21.273Z,1001.28
2018-12-24T00:18:21.211Z,1001.30
2018-12-24T00:19:21.205Z,1001.18
2018-12-24T00:20:21.203Z,1001.30
2018-12-24T00:21:21.192Z,1001.16
2018-12-24T00:22:21.198Z,1001.21
2018-12-24T00:23:21.201Z,1001.18
2018-12-24T00:24:21.183Z,1001.23
2018-12-24T00:25:21.175Z,1001.23
2018-12-24T00:26:21.173Z,1001.32
2018-12-24T00:27:21.178Z,1001.22
2018-12-24T00:28:21.189Z,1001.25
2018-12-24T00:29:21.161Z,1001.40
2018-12-24T00:30:21.155Z,1001.16
2018-12-24T00:31:21.150Z,1001.19
2018-12-24T00:32:21.194Z,1001.26
2018-12-24T00:33:21.155Z,1001.30
2018-12-24T00:34:21.144Z,1001.18
2018-12-24T00:35:21.135Z,1001.19
2018-12-24T00:36:21.154Z,1001.14
2018-12-24T00:37:21.125Z,1001.20
2018-12-24T00:38:21.121Z,1001.12
2018-12-24T00:39:21.117Z,1001.15
2018-12-24T00:40:21.109Z,1001.29
2018-12-24T00:41:21.107Z,1001.36
2018-12-24T00:42:21.123Z,1001.26
2018-12-24T00:43:21.100Z,1001.27
2018-12-24T00:44:21.095Z,1001.39
2018-12-24T00:45:21.095Z,1001.32
2018-12-24T00:46:21.183Z,1001.28
2018-12-24T00:47:21.078Z,1001.27
2018-12-24T00:48:21.085Z,1001.34
2018-12-24T00:49:30.799Z,1001.20
2018-12-24T00:51:25.587Z,1001.28
2018-12-24T00:52:25.570Z,1001.26
2018-12-24T00:53:25.554Z,1001.29
2018-12-24T00:54:25.541Z,1001.23
2018-12-24T00:55:25.542Z,1001.19
2018-12-24T00:56:34.060Z,1001.11
2018-12-24T00:57:35.262Z,1001.14
2018-12-24T00:59:30.046Z,1001.34
2018-12-24T01:00:30.046Z,1001.34
2018-12-24T01:01:30.019Z,1001.34
2018-12-24T01:02:29.998Z,1001.36
2018-12-24T01:03:30.006Z,1001.33
2018-12-24T01:04:30.003Z,1001.34
2018-12-24T01:05:30.006Z,1001.44
2018-12-24T01:06:30.015Z,1001.45
2018-12-24T01:07:29.971Z,1001.49
2018-12-24T01:08:29.962Z,1001.47
2018-12-24T01:09:29.990Z,1001.42
2018-12-24T01:10:29.954Z,1001.49
2018-12-24T01:11:29.952Z,1001.47
2018-12-24T01:12:29.957Z,1001.49
2018-12-24T01:13:29.966Z,1001.41
2018-12-24T01:14:29.958Z,1001.41
2018-12-24T01:15:29.942Z,1001.36
2018-12-24T01:16:29.979Z,1001.37
2018-12-24T01:17:29.928Z,1001.29
2018-12-24T01:18:29.964Z,1001.35
2018-12-24T01:19:29.940Z,1001.39
2018-12-24T01:20:29.921Z,1001.42
2018-12-24T01:21:29.919Z,1001.44
2018-12-24T01:22:29.924Z,1001.37
2018-12-24T01:23:29.906Z,1001.46
2018-12-24T01:24:29.918Z,1001.47
2018-12-24T01:25:29.917Z,1001.49
2018-12-24T01:26:29.897Z,1001.61
2018-12-24T01:27:29.883Z,1001.60
2018-12-24T01:28:29.881Z,1001.68
2018-12-24T01:29:29.878Z,1001.63
2018-12-24T01:30:29.884Z,1001.64
2018-12-24T01:31:29.862Z,1001.70
2018-12-24T01:32:29.870Z,1001.74
2018-12-24T01:33:29.901Z,1001.76
2018-12-24T01:34:29.864Z,1001.84
2018-12-24T01:35:29.847Z,1001.81
2018-12-24T01:36:37.497Z,1001.86
2018-12-24T01:37:38.501Z,1001.82
2018-12-24T01:39:34.348Z,1001.89
2018-12-24T01:40:34.326Z,1002.05
2018-12-24T01:41:34.324Z,1002.02
2018-12-24T01:42:34.324Z,1002.03
2018-12-24T01:43:34.324Z,1002.01
2018-12-24T01:44:34.302Z,1001.93
2018-12-24T01:45:34.285Z,1002.00
2018-12-24T01:46:34.291Z,1002.12
2018-12-24T01:47:34.282Z,1002.19
2018-12-24T01:48:34.280Z,1002.40
2018-12-24T01:49:34.274Z,1002.53
2018-12-24T01:50:34.286Z,1002.69
2018-12-24T01:51:34.302Z,1002.81
2018-12-24T01:52:34.283Z,1002.99
2018-12-24T01:53:34.254Z,1003.27
2018-12-24T01:54:34.264Z,1003.46
2018-12-24T01:55:34.258Z,1003.19
2018-12-24T01:56:34.245Z,1003.65
2018-12-24T01:57:34.251Z,1003.71
2018-12-24T01:58:34.256Z,1003.72
2018-12-24T01:59:34.251Z,1003.70
2018-12-24T02:00:34.236Z,1003.59
2018-12-24T02:01:34.284Z,1003.47
2018-12-24T02:02:34.269Z,1003.57
2018-12-24T02:03:34.235Z,1003.47
2018-12-24T02:04:34.209Z,1003.58
2018-12-24T02:05:34.244Z,1003.61
2018-12-24T02:06:34.237Z,1003.67
2018-12-24T02:07:34.196Z,1003.62
2018-12-24T02:08:34.211Z,1003.57
2018-12-24T02:09:34.224Z,1003.54
2018-12-24T02:10:34.222Z,1003.56
2018-12-24T02:11:34.234Z,1003.52
2018-12-24T02:12:42.073Z,1003.58
2018-12-24T02:13:34.159Z,1003.54
2018-12-24T02:14:34.173Z,1003.61
2018-12-24T02:15:34.168Z,1003.67
2018-12-24T02:16:34.147Z,1003.71
2018-12-24T02:17:34.186Z,1003.73
2018-12-24T02:18:34.175Z,1003.79
2018-12-24T02:19:34.145Z,1003.83
2018-12-24T02:20:34.138Z,1003.88
2018-12-24T02:21:34.160Z,1003.95
2018-12-24T02:22:34.137Z,1003.92
2018-12-24T02:23:34.130Z,1004.03
2018-12-24T02:24:34.110Z,1004.05
2018-12-24T02:25:34.116Z,1004.10
2018-12-24T02:26:34.121Z,1004.16
2018-12-24T02:27:34.125Z,1004.15
2018-12-24T02:28:34.098Z,1004.17
2018-12-24T02:29:34.105Z,1004.15
2018-12-24T02:30:34.115Z,1004.18
2018-12-24T02:31:34.120Z,1004.14
2018-12-24T02:32:34.109Z,1004.17
2018-12-24T02:33:34.071Z,1004.22
2018-12-24T02:34:34.064Z,1004.21
2018-12-24T02:35:34.078Z,1004.24
2018-12-24T02:36:34.057Z,1004.25
2018-12-24T02:37:34.071Z,1004.28
2018-12-24T02:38:34.055Z,1004.27
2018-12-24T02:39:34.039Z,1004.28
2018-12-24T02:40:34.055Z,1004.26
2018-12-24T02:41:34.073Z,1004.30
2018-12-24T02:42:34.034Z,1004.29
2018-12-24T02:43:34.039Z,1004.36
2018-12-24T02:44:34.045Z,1004.40
2018-12-24T02:45:34.043Z,1004.46
2018-12-24T02:46:34.000Z,1004.53
2018-12-24T02:47:34.023Z,1004.62
2018-12-24T02:48:34.002Z,1004.64
2018-12-24T02:49:34.012Z,1004.72
2018-12-24T02:50:33.993Z,1004.75
2018-12-24T02:51:33.990Z,1004.76
2018-12-24T02:52:33.986Z,1004.75
2018-12-24T02:53:33.966Z,1004.83
2018-12-24T02:54:41.163Z,1004.84
2018-12-24T02:56:47.428Z,1004.90
2018-12-24T03:14:16.451Z,1005.56
2018-12-24T03:15:16.402Z,1005.59
2018-12-24T03:16:16.426Z,1005.60
2018-12-24T03:17:16.434Z,1005.57
2018-12-24T03:18:16.383Z,1005.59
2018-12-24T03:19:16.425Z,1005.58
2018-12-24T03:20:16.347Z,1005.64
2018-12-24T03:21:16.389Z,1005.73
2018-12-24T03:22:16.383Z,1005.86
2018-12-24T03:23:16.348Z,1005.77
2018-12-24T03:24:16.338Z,1005.79
2018-12-24T03:25:16.335Z,1005.81
2018-12-24T03:26:16.307Z,1005.98
2018-12-24T03:27:16.302Z,1005.93
2018-12-24T03:28:25.991Z,1005.93
2018-12-24T03:30:09.795Z,1005.93
2018-12-24T03:31:09.704Z,1005.96
2018-12-24T03:32:09.682Z,1006.01
2018-12-24T03:33:09.713Z,1006.10
2018-12-24T03:34:09.694Z,1006.13
2018-12-24T03:35:09.686Z,1006.16
2018-12-24T03:36:09.654Z,1006.15
2018-12-24T03:37:09.653Z,1006.11
2018-12-24T03:38:09.675Z,1006.19
2018-12-24T03:39:09.660Z,1006.28
2018-12-24T03:40:09.629Z,1006.31
2018-12-24T03:41:09.627Z,1006.44
2018-12-24T03:42:09.653Z,1006.41
2018-12-24T03:43:12.785Z,1006.41
2018-12-24T03:44:09.634Z,1006.37
2018-12-24T03:45:09.635Z,1006.42
2018-12-24T03:46:09.614Z,1006.45
2018-12-24T03:47:09.584Z,1006.40
2018-12-24T03:48:09.583Z,1006.42
2018-12-24T03:49:09.602Z,1006.50
2018-12-24T03:50:09.613Z,1006.59
2018-12-24T03:51:09.582Z,1006.62
2018-12-24T03:52:09.560Z,1006.64
2018-12-24T03:53:09.600Z,1006.72
2018-12-24T03:54:09.554Z,1006.78
2018-12-24T03:55:09.552Z,1006.81
2018-12-24T03:56:09.562Z,1006.78
2018-12-24T03:57:09.583Z,1006.75
2018-12-24T03:58:09.536Z,1006.76
2018-12-24T03:59:09.528Z,1006.80
2018-12-24T04:00:09.513Z,1006.74
2018-12-24T04:01:09.521Z,1006.81
2018-12-24T04:02:09.507Z,1006.84
2018-12-24T04:03:09.517Z,1006.84
2018-12-24T04:04:09.499Z,1006.93
2018-12-24T04:05:09.502Z,1006.97
2018-12-24T04:06:09.496Z,1006.96
2018-12-24T04:07:09.503Z,1007.06
2018-12-24T04:08:09.471Z,1007.07
2018-12-24T04:09:09.465Z,1007.16
2018-12-24T04:10:09.528Z,1007.25
2018-12-24T04:11:09.485Z,1007.29
2018-12-24T04:12:09.501Z,1007.36
2018-12-24T04:13:09.449Z,1007.44
2018-12-24T04:14:09.439Z,1007.50
2018-12-24T04:15:09.451Z,1007.52
2018-12-24T04:16:09.414Z,1007.55
2018-12-24T04:17:09.491Z,1007.57
2018-12-24T04:18:09.449Z,1007.56
2018-12-24T04:19:09.458Z,1007.59
2018-12-24T04:20:09.435Z,1007.65
2018-12-24T04:21:09.404Z,1007.70
2018-12-24T04:22:09.382Z,1007.74
2018-12-24T04:23:09.379Z,1007.80
2018-12-24T04:24:09.385Z,1007.90
2018-12-24T04:25:09.368Z,1007.89
2018-12-24T04:26:09.355Z,1007.88
2018-12-24T04:27:09.403Z,1007.88
2018-12-24T04:28:09.387Z,1007.98
2018-12-24T04:29:09.347Z,1008.03
2018-12-24T04:30:09.335Z,1007.99
2018-12-24T04:31:09.361Z,1008.09
2018-12-24T04:32:09.329Z,1008.11
2018-12-24T04:33:09.349Z,1008.21
2018-12-24T04:34:09.317Z,1008.21
2018-12-24T04:35:09.308Z,1008.20
2018-12-24T04:36:09.315Z,1008.24
2018-12-24T04:37:09.306Z,1008.26
2018-12-24T04:38:09.304Z,1008.25
2018-12-24T04:39:09.285Z,1008.24
2018-12-24T04:40:09.276Z,1008.23
2018-12-24T04:41:09.262Z,1008.31
2018-12-24T04:42:09.263Z,1008.31
2018-12-24T04:43:09.307Z,1008.34
2018-12-24T04:44:09.283Z,1008.42
2018-12-24T04:45:09.301Z,1008.46
2018-12-24T04:46:09.247Z,1008.49
2018-12-24T04:47:09.258Z,1008.57
2018-12-24T04:48:09.238Z,1008.62
2018-12-24T04:49:09.226Z,1008.71
2018-12-24T04:50:09.236Z,1008.72
2018-12-24T04:51:09.241Z,1008.73
2018-12-24T04:52:09.213Z,1008.78
2018-12-24T04:53:09.196Z,1008.90
2018-12-24T04:54:09.238Z,1008.91
2018-12-24T04:55:09.264Z,1008.94
2018-12-24T04:56:09.210Z,1008.97
2018-12-24T04:57:09.163Z,1009.02
2018-12-24T04:58:09.171Z,1009.12
2018-12-24T04:59:09.165Z,1009.21
2018-12-24T05:00:09.150Z,1009.24
2018-12-24T05:01:09.150Z,1009.29
2018-12-24T05:02:09.158Z,1009.33
2018-12-24T05:03:09.171Z,1009.38
2018-12-24T05:04:09.139Z,1009.46
2018-12-24T05:05:09.115Z,1009.44
2018-12-24T05:06:09.155Z,1009.49
2018-12-24T05:07:09.131Z,1009.48
2018-12-24T05:08:09.101Z,1009.46
2018-12-24T05:09:09.094Z,1009.44
2018-12-24T05:10:09.100Z,1009.50
2018-12-24T05:11:09.091Z,1009.47
2018-12-24T05:12:09.077Z,1009.49
2018-12-24T05:13:09.087Z,1009.53
2018-12-24T05:14:09.081Z,1009.59
2018-12-24T05:15:09.075Z,1009.64
2018-12-24T05:16:09.076Z,1009.70
2018-12-24T05:17:09.051Z,1009.74
2018-12-24T05:18:09.042Z,1009.72
2018-12-24T05:19:09.066Z,1009.68
2018-12-24T05:20:09.036Z,1009.68
2018-12-24T05:21:09.022Z,1009.70
2018-12-24T05:22:09.032Z,1009.71
2018-12-24T05:23:09.027Z,1009.72
2018-12-24T05:24:09.001Z,1009.71
2018-12-24T05:25:09.069Z,1009.58
2018-12-24T05:26:08.989Z,1009.60
2018-12-24T05:27:08.992Z,1009.64
2018-12-24T05:28:08.999Z,1009.72
2018-12-24T05:29:09.005Z,1009.79
2018-12-24T05:30:08.994Z,1009.87
2018-12-24T05:31:08.959Z,1009.84
2018-12-24T05:32:09.012Z,1009.81
2018-12-24T05:33:08.971Z,1009.90
2018-12-24T05:34:08.975Z,1009.95
2018-12-24T05:35:17.673Z,1010.01
2018-12-24T05:37:13.426Z,1010.09
2018-12-24T05:38:13.435Z,1010.18
2018-12-24T05:39:13.421Z,1010.12
2018-12-24T05:40:13.472Z,1010.15
2018-12-24T05:41:13.395Z,1010.14
2018-12-24T05:42:13.378Z,1010.22
2018-12-24T05:43:13.369Z,1010.25
2018-12-24T05:44:13.358Z,1010.36
2018-12-24T05:45:13.352Z,1010.36
2018-12-24T05:46:13.394Z,1010.41
2018-12-24T05:47:13.355Z,1010.45
2018-12-24T05:48:13.373Z,1010.48
2018-12-24T05:49:13.331Z,1010.55
2018-12-24T05:50:13.332Z,1010.60
2018-12-24T05:51:13.316Z,1010.70
2018-12-24T05:52:13.314Z,1010.76
2018-12-24T05:53:13.336Z,1010.77
2018-12-24T05:54:13.319Z,1010.79
2018-12-24T05:55:13.320Z,1010.83
2018-12-24T05:56:13.300Z,1010.84
2018-12-24T05:57:13.287Z,1010.89
2018-12-24T05:58:13.278Z,1010.92
2018-12-24T05:59:13.262Z,1010.96
2018-12-24T06:00:13.278Z,1010.97
2018-12-24T06:01:13.251Z,1010.98
2018-12-24T06:02:13.285Z,1011.02
2018-12-24T06:03:13.266Z,1011.12
2018-12-24T06:04:13.229Z,1011.20
2018-12-24T06:05:13.242Z,1011.18
2018-12-24T06:06:13.255Z,1011.23
2018-12-24T06:07:13.215Z,1011.25
2018-12-24T06:08:13.226Z,1011.32
2018-12-24T06:09:13.200Z,1011.39
2018-12-24T06:10:13.210Z,1011.42
2018-12-24T06:11:13.212Z,1011.44
2018-12-24T06:12:13.191Z,1011.42
2018-12-24T06:13:13.189Z,1011.44
2018-12-24T06:14:13.198Z,1011.45
2018-12-24T06:15:13.168Z,1011.49
2018-12-24T06:16:13.163Z,1011.54
2018-12-24T06:17:13.152Z,1011.59
2018-12-24T06:18:13.162Z,1011.64
2018-12-24T06:19:13.169Z,1011.70
2018-12-24T06:20:13.146Z,1011.71
2018-12-24T06:21:13.125Z,1011.78
2018-12-24T06:22:13.126Z,1011.77
2018-12-24T06:23:13.112Z,1011.86
2018-12-24T06:24:13.113Z,1011.85
2018-12-24T06:25:13.100Z,1011.82
2018-12-24T06:26:13.105Z,1011.83
2018-12-24T06:27:13.097Z,1011.94
2018-12-24T06:28:13.112Z,1011.96
2018-12-24T06:29:13.113Z,1011.97
2018-12-24T06:30:13.107Z,1012.03
2018-12-24T06:31:13.114Z,1012.06
2018-12-24T06:32:13.051Z,1012.12
2018-12-24T06:33:13.051Z,1012.20
2018-12-24T06:34:13.057Z,1012.20
2018-12-24T06:35:13.035Z,1012.28
2018-12-24T06:36:13.021Z,1012.30
2018-12-24T06:37:13.038Z,1012.32
2018-12-24T06:38:13.025Z,1012.39
2018-12-24T06:39:13.025Z,1012.36
2018-12-24T06:40:12.996Z,1012.46
2018-12-24T06:41:12.991Z,1012.45
2018-12-24T06:42:13.003Z,1012.51
2018-12-24T06:43:13.018Z,1012.52
2018-12-24T06:44:12.972Z,1012.54
2018-12-24T06:45:12.980Z,1012.60
2018-12-24T06:46:12.952Z,1012.61
2018-12-24T06:47:21.616Z,1012.65
2018-12-24T06:49:17.454Z,1012.73
2018-12-24T06:50:17.419Z,1012.78
2018-12-24T06:51:17.435Z,1012.85
2018-12-24T06:52:17.433Z,1012.84
2018-12-24T06:53:17.440Z,1012.90
2018-12-24T06:54:17.396Z,1012.91
2018-12-24T06:55:17.393Z,1012.98
2018-12-24T06:56:17.397Z,1012.94
2018-12-24T06:57:17.407Z,1013.02
2018-12-24T06:58:17.378Z,1013.01
2018-12-24T06:59:17.368Z,1013.04
2018-12-24T07:00:17.374Z,1013.01
2018-12-24T07:01:17.352Z,1013.06
2018-12-24T07:02:17.448Z,1013.09
2018-12-24T07:03:17.329Z,1013.12
2018-12-24T07:04:17.328Z,1013.15
2018-12-24T07:05:17.330Z,1013.20
2018-12-24T07:06:17.386Z,1013.24
2018-12-24T07:07:17.333Z,1013.28
2018-12-24T07:08:17.307Z,1013.27
2018-12-24T07:09:17.292Z,1013.28
2018-12-24T07:10:17.285Z,1013.35
2018-12-24T07:11:17.295Z,1013.38
2018-12-24T07:12:17.356Z,1013.36
2018-12-24T07:13:17.287Z,1013.42
2018-12-24T07:14:17.280Z,1013.44
2018-12-24T07:15:17.264Z,1013.52
2018-12-24T07:16:17.272Z,1013.51
2018-12-24T07:17:17.280Z,1013.56
2018-12-24T07:18:17.270Z,1013.54
2018-12-24T07:19:17.225Z,1013.55
2018-12-24T07:20:17.270Z,1013.58
2018-12-24T07:21:17.243Z,1013.59
2018-12-24T07:22:17.225Z,1013.58
2018-12-24T07:23:17.241Z,1013.60
2018-12-24T07:24:17.234Z,1013.57
2018-12-24T07:25:17.233Z,1013.58
2018-12-24T07:26:17.230Z,1013.56
2018-12-24T07:27:17.181Z,1013.61
2018-12-24T07:28:17.214Z,1013.63
2018-12-24T07:29:17.175Z,1013.66
2018-12-24T07:30:17.165Z,1013.68
2018-12-24T07:31:17.918Z,1013.71
2018-12-24T07:32:17.196Z,1013.75
2018-12-24T07:33:17.134Z,1013.72
2018-12-24T07:34:17.149Z,1013.78
2018-12-24T07:35:17.130Z,1013.76
2018-12-24T07:36:17.136Z,1013.80
2018-12-24T07:37:17.116Z,1013.83
2018-12-24T07:38:17.098Z,1013.88
2018-12-24T07:39:17.128Z,1013.89
2018-12-24T07:40:17.166Z,1013.93
2018-12-24T07:41:17.107Z,1013.90
2018-12-24T07:42:17.072Z,1013.93
2018-12-24T07:43:17.126Z,1013.95
2018-12-24T07:44:53.533Z,1013.97
2018-12-24T07:45:20.033Z,1013.98
2018-12-24T07:46:17.084Z,1014.00
2018-12-24T07:47:17.048Z,1014.01
2018-12-24T07:48:17.035Z,1014.02
2018-12-24T07:49:17.035Z,1014.09
2018-12-24T07:50:17.036Z,1014.10
2018-12-24T07:51:17.043Z,1014.10
2018-12-24T07:52:17.043Z,1014.11
2018-12-24T07:53:17.033Z,1014.11
2018-12-24T07:54:17.039Z,1014.09
2018-12-24T07:55:16.994Z,1014.08
2018-12-24T07:56:17.013Z,1014.09
2018-12-24T07:57:16.984Z,1014.12
2018-12-24T07:58:16.963Z,1014.15
2018-12-24T07:59:16.978Z,1014.14
2018-12-24T08:00:16.967Z,1014.19
2018-12-24T08:01:16.982Z,1014.16
2018-12-24T08:02:26.249Z,1014.20
2018-12-24T08:04:21.428Z,1014.17
2018-12-24T08:05:21.402Z,1014.18
2018-12-24T08:06:21.401Z,1014.23
2018-12-24T08:07:21.385Z,1014.20
2018-12-24T08:08:31.074Z,1014.21
2018-12-24T08:10:15.823Z,1014.22
2018-12-24T08:11:15.780Z,1014.28
2018-12-24T08:12:15.776Z,1014.26
2018-12-24T08:13:15.781Z,1014.26
2018-12-24T08:14:15.789Z,1014.31
2018-12-24T08:15:15.747Z,1014.29
2018-12-24T08:16:15.761Z,1014.32
2018-12-24T08:17:15.757Z,1014.30
2018-12-24T08:18:15.727Z,1014.32
2018-12-24T08:19:15.783Z,1014.35
2018-12-24T08:20:15.727Z,1014.36
2018-12-24T08:21:15.751Z,1014.39
2018-12-24T08:22:15.747Z,1014.41
2018-12-24T08:23:15.707Z,1014.42
2018-12-24T08:24:15.719Z,1014.44
2018-12-24T08:25:15.694Z,1014.45
2018-12-24T08:26:15.697Z,1014.50
2018-12-24T08:27:25.404Z,1014.48
2018-12-24T08:29:20.221Z,1014.57
2018-12-24T08:30:20.141Z,1014.60
2018-12-24T08:31:20.142Z,1014.57
2018-12-24T08:32:20.159Z,1014.57
2018-12-24T08:33:20.132Z,1014.56
2018-12-24T08:34:20.129Z,1014.62
2018-12-24T08:35:20.122Z,1014.59
2018-12-24T08:36:20.139Z,1014.62
2018-12-24T08:37:20.110Z,1014.58
2018-12-24T08:38:20.143Z,1014.64
2018-12-24T08:39:20.102Z,1014.62
2018-12-24T08:40:20.092Z,1014.64
2018-12-24T08:41:20.096Z,1014.63
2018-12-24T08:42:20.110Z,1014.65
2018-12-24T08:43:29.829Z,1014.68
2018-12-24T08:45:24.579Z,1014.70
2018-12-24T08:46:24.552Z,1014.69
2018-12-24T08:48:29.080Z,1014.70
2018-12-24T08:49:29.028Z,1014.68
2018-12-24T08:50:29.033Z,1014.69
2018-12-24T08:51:28.993Z,1014.68
2018-12-24T08:52:28.996Z,1014.74
2018-12-24T08:53:29.012Z,1014.77
2018-12-24T08:54:28.979Z,1014.77
2018-12-24T08:55:28.971Z,1014.79
2018-12-24T08:56:29.316Z,1014.87
2018-12-24T08:57:28.995Z,1014.81
2018-12-24T08:58:28.943Z,1014.89
2018-12-24T08:59:28.965Z,1014.87
2018-12-24T09:00:28.979Z,1014.89
2018-12-24T09:01:28.941Z,1014.91
2018-12-24T09:02:28.925Z,1014.94
2018-12-24T09:03:28.921Z,1014.96
2018-12-24T09:04:28.942Z,1014.98
2018-12-24T09:05:28.902Z,1015.00
2018-12-24T09:06:28.941Z,1015.00
2018-12-24T09:07:28.912Z,1015.01
2018-12-24T09:08:28.884Z,1015.06
2018-12-24T09:09:28.915Z,1015.04
2018-12-24T09:10:28.899Z,1015.03
2018-12-24T09:11:28.890Z,1015.08
2018-12-24T09:12:28.877Z,1015.06
2018-12-24T09:13:28.881Z,1015.08
2018-12-24T09:14:28.846Z,1015.12
2018-12-24T09:15:30.489Z,1015.15
2018-12-24T09:16:28.843Z,1015.15
2018-12-24T09:17:28.842Z,1015.18
2018-12-24T09:18:28.824Z,1015.21
2018-12-24T09:19:28.833Z,1015.24
2018-12-24T09:20:28.803Z,1015.23
2018-12-24T09:21:28.803Z,1015.23
2018-12-24T09:22:28.799Z,1015.26
2018-12-24T09:23:28.807Z,1015.29
2018-12-24T09:24:28.853Z,1015.30
2018-12-24T09:25:28.793Z,1015.35
2018-12-24T09:26:28.788Z,1015.33
2018-12-24T09:27:28.777Z,1015.35
2018-12-24T09:28:28.791Z,1015.41
2018-12-24T09:29:28.747Z,1015.39
2018-12-24T09:30:28.744Z,1015.40
2018-12-24T09:31:28.777Z,1015.44
2018-12-24T09:32:28.749Z,1015.44
2018-12-24T09:33:28.743Z,1015.46
2018-12-24T09:34:28.720Z,1015.43
2018-12-24T09:35:28.802Z,1015.44
2018-12-24T09:36:28.703Z,1015.46
2018-12-24T09:37:28.694Z,1015.46
2018-12-24T09:38:28.688Z,1015.47
2018-12-24T09:39:28.703Z,1015.50
2018-12-24T09:40:28.684Z,1015.54
2018-12-24T09:41:28.710Z,1015.55
2018-12-24T09:42:28.678Z,1015.56
2018-12-24T09:43:28.670Z,1015.63
2018-12-24T09:44:28.659Z,1015.60
2018-12-24T09:45:28.694Z,1015.68
2018-12-24T09:46:28.650Z,1015.65
2018-12-24T09:47:28.652Z,1015.70
2018-12-24T09:48:28.630Z,1015.68
2018-12-24T09:49:28.642Z,1015.73
2018-12-24T09:50:28.631Z,1015.74
2018-12-24T09:51:28.604Z,1015.78
2018-12-24T09:52:28.603Z,1015.76
2018-12-24T09:53:28.597Z,1015.76
2018-12-24T09:54:28.615Z,1015.74
2018-12-24T09:55:28.613Z,1015.77
2018-12-24T09:56:28.607Z,1015.81
2018-12-24T09:57:28.617Z,1015.79
2018-12-24T09:58:28.592Z,1015.79
2018-12-24T09:59:28.584Z,1015.75
2018-12-24T10:00:28.599Z,1015.75
2018-12-24T10:01:28.546Z,1015.74
2018-12-24T10:02:28.546Z,1015.74
2018-12-24T10:03:28.534Z,1015.84
2018-12-24T10:04:28.540Z,1015.86
2018-12-24T10:05:28.595Z,1015.86
2018-12-24T10:06:28.514Z,1015.91
2018-12-24T10:07:28.569Z,1015.96
2018-12-24T10:08:28.500Z,1015.98
2018-12-24T10:09:28.500Z,1016.00
2018-12-24T10:10:28.505Z,1016.02
2018-12-24T10:11:28.502Z,1016.02
2018-12-24T10:12:28.476Z,1016.06
2018-12-24T10:13:28.493Z,1016.04
2018-12-24T10:14:28.517Z,1016.03
2018-12-24T10:15:28.493Z,1016.00
2018-12-24T10:16:28.507Z,1016.03
2018-12-24T10:17:28.498Z,1015.99
2018-12-24T10:18:28.445Z,1015.96
2018-12-24T10:19:28.461Z,1015.99
2018-12-24T10:20:28.538Z,1015.97
2018-12-24T10:21:28.453Z,1015.96
2018-12-24T10:22:28.458Z,1015.90
2018-12-24T10:23:28.471Z,1015.90
2018-12-24T10:24:28.405Z,1015.88
2018-12-24T10:25:28.482Z,1015.91
2018-12-24T10:26:28.421Z,1015.92
2018-12-24T10:27:28.412Z,1015.89
2018-12-24T10:28:28.410Z,1015.87
2018-12-24T10:29:28.393Z,1015.90
2018-12-24T10:30:28.372Z,1015.87
2018-12-24T10:31:28.359Z,1015.90
2018-12-24T10:32:28.484Z,1015.91
2018-12-24T10:33:28.375Z,1015.93
2018-12-24T10:34:28.407Z,1015.95
2018-12-24T10:35:28.370Z,1015.93
2018-12-24T10:36:37.080Z,1015.96
